createdAt,value
2023-05-05T00:02:45.033Z,99893.59
2023-05-05T00:07:46.803Z,99887.63
2023-05-05T00:12:48.886Z,99881.88
2023-05-05T00:17:50.745Z,99882.81
2023-05-05T00:22:52.758Z,99866.88
2023-05-05T00:27:54.597Z,99865.69
2023-05-05T00:32:57.343Z,99868.81
2023-05-05T00:37:59.635Z,99862.44
2023-05-05T00:43:01.461Z,99854.56
2023-05-05T00:48:03.876Z,99850.03
2023-05-05T00:53:06.709Z,99838.75
2023-05-05T00:58:09.275Z,99844.75
2023-05-05T01:03:13.080Z,99840.84
2023-05-05T01:08:36.567Z,99838.28
2023-05-05T01:13:55.677Z,99846.03
2023-05-05T01:19:34.778Z,99861.28
2023-05-05T01:24:39.538Z,99861.28
2023-05-05T01:29:50.567Z,99844.69
2023-05-05T01:35:04.361Z,99844.63
2023-05-05T01:40:08.970Z,99847.47
2023-05-05T01:45:14.694Z,99852.31
2023-05-05T01:50:18.158Z,99865.00
2023-05-05T01:55:23.890Z,99860.19
2023-05-05T02:00:27.109Z,99865.94
2023-05-05T02:05:31.746Z,99862.13
2023-05-05T02:10:34.264Z,99864.94
2023-05-05T02:15:38.342Z,99869.66
2023-05-05T02:20:41.222Z,99870.25
2023-05-05T02:25:46.215Z,99859.66
2023-05-05T02:30:59.518Z,99875.13
2023-05-05T02:36:29.642Z,99890.06
2023-05-05T02:41:38.408Z,99887.03
2023-05-05T02:46:45.923Z,99891.53
2023-05-05T02:51:48.304Z,99881.88
2023-05-05T02:56:57.850Z,99883.44
2023-05-05T03:02:18.190Z,99889.91
2023-05-05T03:07:34.697Z,99890.94
2023-05-05T03:12:40.434Z,99884.66
2023-05-05T03:17:54.161Z,99897.56
2023-05-05T03:22:56.711Z,99894.75
2023-05-05T03:27:58.565Z,99888.56
2023-05-05T03:33:01.115Z,99884.91
2023-05-05T03:38:03.467Z,99887.25
2023-05-05T03:43:05.367Z,99892.94
2023-05-05T03:48:09.676Z,99893.28
2023-05-05T03:53:13.186Z,99898.00
2023-05-05T03:58:16.517Z,99901.22
2023-05-05T04:03:18.497Z,99904.09
2023-05-05T04:08:20.448Z,99906.31
2023-05-05T04:13:22.286Z,99910.25
2023-05-05T04:18:24.107Z,99913.41
2023-05-05T04:23:26.431Z,99920.31
2023-05-05T04:28:28.664Z,99925.78
2023-05-05T04:33:30.768Z,99925.97
2023-05-05T04:38:32.852Z,99922.94
2023-05-05T04:43:36.328Z,99922.22
2023-05-05T04:48:38.615Z,99922.25
2023-05-05T04:53:40.850Z,99919.53
2023-05-05T04:58:42.870Z,99916.91
2023-05-05T05:03:44.827Z,99921.72
2023-05-05T05:08:47.752Z,99910.81
2023-05-05T05:13:50.075Z,99912.75
2023-05-05T05:18:51.936Z,99926.91
2023-05-05T05:23:54.131Z,99935.41
2023-05-05T05:28:56.066Z,99939.69
2023-05-05T05:33:58.705Z,99943.22
2023-05-05T05:39:00.733Z,99953.31
2023-05-05T05:44:03.468Z,99951.66
2023-05-05T05:49:05.581Z,99953.81
2023-05-05T05:54:07.653Z,99940.38
2023-05-05T05:59:10.353Z,99950.34
2023-05-05T06:04:14.131Z,99951.19
2023-05-05T06:09:16.154Z,99940.31
2023-05-05T06:14:20.013Z,99949.06
2023-05-05T06:19:22.600Z,99942.72
2023-05-05T06:24:25.058Z,99944.19
2023-05-05T06:29:27.022Z,99933.50
2023-05-05T06:34:28.746Z,99940.97
2023-05-05T06:39:30.845Z,99943.06
2023-05-05T06:44:34.619Z,99938.22
2023-05-05T06:49:36.668Z,99933.56
2023-05-05T06:54:38.415Z,99942.28
2023-05-05T06:59:40.462Z,99933.16
2023-05-05T07:04:43.713Z,99931.75
2023-05-05T07:09:45.459Z,99932.19
2023-05-05T07:14:47.250Z,99925.59
2023-05-05T07:19:49.037Z,99939.44
2023-05-05T07:24:53.424Z,99933.72
2023-05-05T07:29:55.265Z,99936.13
2023-05-05T07:34:57.092Z,99935.38
2023-05-05T07:39:58.930Z,99926.72
2023-05-05T07:45:00.841Z,99928.50
2023-05-05T07:50:02.618Z,99926.16
2023-05-05T07:55:04.927Z,99915.00
2023-05-05T08:00:09.426Z,99923.00
2023-05-05T08:05:14.561Z,99919.13
2023-05-05T08:10:16.468Z,99915.09
2023-05-05T08:15:18.305Z,99911.69
2023-05-05T08:20:21.153Z,99918.31
2023-05-05T08:25:23.092Z,99917.53
2023-05-05T08:30:24.821Z,99916.09
2023-05-05T08:35:26.580Z,99911.44
2023-05-05T08:40:36.547Z,99907.47
2023-05-05T08:45:41.844Z,99902.97
2023-05-05T08:50:48.704Z,99910.69
2023-05-05T08:55:56.165Z,99908.38
2023-05-05T09:00:58.684Z,99896.94
2023-05-05T09:06:00.936Z,99898.69
2023-05-05T09:11:02.857Z,99895.03
2023-05-05T09:16:04.869Z,99888.41
2023-05-05T09:21:24.910Z,99896.06
2023-05-05T09:26:26.789Z,99893.78
2023-05-05T09:31:30.963Z,99882.03
2023-05-05T09:36:47.517Z,99893.63
2023-05-05T09:41:49.314Z,99896.19
2023-05-05T09:46:52.882Z,99880.25
2023-05-05T09:51:55.126Z,99874.63
2023-05-05T09:56:57.477Z,99879.91
2023-05-05T10:02:13.296Z,99883.84
2023-05-05T10:07:27.510Z,99888.06
2023-05-05T10:12:31.344Z,99882.41
2023-05-05T10:17:37.372Z,99880.91
2023-05-05T10:22:40.066Z,99880.59
2023-05-05T10:27:50.724Z,99870.53
2023-05-05T10:33:13.554Z,99884.09
2023-05-05T10:38:21.092Z,99868.06
2023-05-05T10:43:24.548Z,99860.44
2023-05-05T10:48:49.384Z,99855.56
2023-05-05T10:53:58.718Z,99861.25
2023-05-05T10:59:00.949Z,99854.31
2023-05-05T11:04:23.234Z,99845.00
2023-05-05T11:09:28.846Z,99833.31
2023-05-05T11:14:30.808Z,99820.47
2023-05-05T11:19:48.484Z,99817.38
2023-05-05T11:24:50.340Z,99808.50
2023-05-05T11:30:04.958Z,99797.47
2023-05-05T11:35:07.250Z,99793.69
2023-05-05T11:40:28.753Z,99771.59
2023-05-05T11:45:30.588Z,99781.22
2023-05-05T11:50:33.402Z,99774.25
2023-05-05T11:55:35.249Z,99769.75
2023-05-05T12:00:37.112Z,99768.91
2023-05-05T12:05:39.031Z,99767.75
2023-05-05T12:10:41.082Z,99774.06
2023-05-05T12:15:42.824Z,99775.47
2023-05-05T12:20:44.718Z,99777.00
2023-05-05T12:25:46.520Z,99771.25
2023-05-05T12:30:58.891Z,99770.53
2023-05-05T12:36:00.943Z,99762.19
2023-05-05T12:41:02.817Z,99752.84
2023-05-05T12:46:06.532Z,99763.88
2023-05-05T12:51:19.971Z,99761.00
2023-05-05T12:56:35.157Z,99748.94
2023-05-05T13:01:48.091Z,99747.00
2023-05-05T13:07:11.225Z,99739.03
2023-05-05T13:12:13.172Z,99735.47
2023-05-05T13:17:15.057Z,99726.88
2023-05-05T13:22:16.956Z,99728.72
2023-05-05T13:27:19.048Z,99719.22
2023-05-05T13:32:20.913Z,99722.22
2023-05-05T13:37:22.740Z,99727.47
2023-05-05T13:42:24.635Z,99717.88
2023-05-05T13:47:26.442Z,99704.78
2023-05-05T13:52:29.834Z,99712.84
2023-05-05T13:57:32.815Z,99722.41
2023-05-05T14:02:34.654Z,99718.78
2023-05-05T14:07:36.466Z,99729.56
2023-05-05T14:12:38.296Z,99742.50
2023-05-05T14:17:40.141Z,99740.88
2023-05-05T14:22:42.334Z,99750.03
2023-05-05T14:27:44.388Z,99758.97
2023-05-05T14:32:46.195Z,99772.38
2023-05-05T14:37:47.951Z,99776.00
2023-05-05T14:42:50.918Z,99783.22
2023-05-05T14:47:52.857Z,99775.44
2023-05-05T14:52:54.611Z,99776.13
2023-05-05T14:57:56.389Z,99775.47
2023-05-05T15:02:58.313Z,99779.81
2023-05-05T15:08:00.058Z,99776.66
2023-05-05T15:13:01.977Z,99773.47
2023-05-05T15:18:04.061Z,99781.97
2023-05-05T15:23:05.941Z,99785.63
2023-05-05T15:28:07.833Z,99784.81
2023-05-05T15:33:10.715Z,99781.22
2023-05-05T15:38:12.610Z,99775.25
2023-05-05T15:43:14.323Z,99775.56
2023-05-05T15:48:16.125Z,99765.53
2023-05-05T15:53:17.925Z,99755.31
2023-05-05T15:58:19.669Z,99756.25
2023-05-05T16:03:21.714Z,99756.22
2023-05-05T16:08:23.599Z,99761.38
2023-05-05T16:13:25.356Z,99760.59
2023-05-05T16:18:27.101Z,99764.78
2023-05-05T16:23:28.915Z,99764.84
2023-05-05T16:28:31.075Z,99769.47
2023-05-05T16:33:33.123Z,99766.16
2023-05-05T16:38:34.942Z,99769.97
2023-05-05T16:43:37.338Z,99769.00
2023-05-05T16:48:39.126Z,99763.06
2023-05-05T16:53:40.926Z,99767.19
2023-05-05T16:58:42.715Z,99771.53
2023-05-05T17:03:47.288Z,99769.16
2023-05-05T17:08:49.015Z,99767.16
2023-05-05T17:13:50.749Z,99764.03
2023-05-05T17:18:53.997Z,99772.78
2023-05-05T17:23:55.795Z,99767.47
2023-05-05T17:28:57.529Z,99776.31
2023-05-05T17:33:59.322Z,99770.31
2023-05-05T17:39:01.088Z,99769.63
2023-05-05T17:44:02.877Z,99770.66
2023-05-05T17:49:04.728Z,99771.47
2023-05-05T17:54:06.602Z,99768.50
2023-05-05T17:59:08.913Z,99771.59
2023-05-05T18:04:11.921Z,99776.03
2023-05-05T18:09:14.003Z,99783.06
2023-05-05T18:14:15.993Z,99785.56
2023-05-05T18:19:20.692Z,99798.16
2023-05-05T18:24:22.475Z,99797.44
2023-05-05T18:29:24.316Z,99802.53
2023-05-05T18:34:26.372Z,99798.53
2023-05-05T18:39:28.195Z,99810.16
2023-05-05T18:44:29.944Z,99822.38
2023-05-05T18:49:31.860Z,99818.59
2023-05-05T18:54:34.687Z,99819.53
2023-05-05T18:59:38.329Z,99830.72
2023-05-05T19:04:41.538Z,99837.81
2023-05-05T19:09:43.412Z,99848.75
2023-05-05T19:14:45.546Z,99852.53
2023-05-05T19:19:47.296Z,99858.59
2023-05-05T19:24:49.113Z,99870.66
2023-05-05T19:29:52.683Z,99878.91
2023-05-05T19:34:54.870Z,99879.75
2023-05-05T19:39:56.632Z,99886.16
2023-05-05T19:44:58.455Z,99886.31
2023-05-05T19:50:00.365Z,99895.22
2023-05-05T19:55:02.211Z,99890.31
2023-05-05T20:00:04.483Z,99897.88
2023-05-05T20:05:06.612Z,99900.91
2023-05-05T20:10:09.663Z,99891.03
2023-05-05T20:15:11.722Z,99898.81
2023-05-05T20:20:17.240Z,99901.75
2023-05-05T20:25:19.060Z,99902.25
2023-05-05T20:30:21.050Z,99909.13
2023-05-05T20:35:23.048Z,99906.88
2023-05-05T20:40:24.858Z,99912.88
2023-05-05T20:45:26.690Z,99908.25
2023-05-05T20:50:28.524Z,99909.22
2023-05-05T20:55:30.465Z,99914.06
2023-05-05T21:00:32.347Z,99915.22
2023-05-05T21:05:34.245Z,99918.34
2023-05-05T21:10:36.391Z,99925.56
2023-05-05T21:15:38.182Z,99930.19
2023-05-05T21:20:39.988Z,99924.19
2023-05-05T21:25:41.780Z,99933.22
2023-05-05T21:30:44.283Z,99933.84
2023-05-05T21:35:47.033Z,99927.00
2023-05-05T21:40:49.737Z,99932.66
2023-05-05T21:46:04.336Z,99947.47
2023-05-05T21:51:06.815Z,99947.50
2023-05-05T21:56:08.705Z,99941.88
2023-05-05T22:01:10.748Z,99937.97
2023-05-05T22:06:12.576Z,99942.53
2023-05-05T22:11:14.768Z,99944.22
2023-05-05T22:16:19.609Z,99944.59
2023-05-05T22:21:22.137Z,99951.28
2023-05-05T22:26:23.972Z,99946.66
2023-05-05T22:31:25.880Z,99951.00
2023-05-05T22:36:27.668Z,99951.22
2023-05-05T22:41:29.437Z,99957.16
2023-05-05T22:46:31.350Z,99957.91
2023-05-05T22:51:33.205Z,99959.19
2023-05-05T22:56:34.940Z,99958.00
2023-05-05T23:01:36.809Z,99964.09
2023-05-05T23:06:41.304Z,99970.59
2023-05-05T23:11:45.961Z,99966.16
2023-05-05T23:16:47.950Z,99962.91
2023-05-05T23:21:53.556Z,99962.78
2023-05-05T23:26:58.449Z,99970.47
2023-05-05T23:32:00.175Z,99960.97
2023-05-05T23:37:02.947Z,99959.19
2023-05-05T23:42:06.508Z,99958.94
2023-05-05T23:47:08.248Z,99955.00
2023-05-05T23:52:11.346Z,99950.09
2023-05-05T23:57:13.280Z,99955.25
